sensor_id;sensor_type;location;lat;lon;timestamp;temperature;humidity
68691;DHT22;55675;49.588;8.640;2022-10-30T00:00:09;15.90;93.40
68691;DHT22;55675;49.588;8.640;2022-10-30T00:02:35;15.90;93.50
68691;DHT22;55675;49.588;8.640;2022-10-30T00:05:00;15.90;93.50
68691;DHT22;55675;49.588;8.640;2022-10-30T00:07:26;15.90;93.50
68691;DHT22;55675;49.588;8.640;2022-10-30T00:09:51;15.90;93.60
68691;DHT22;55675;49.588;8.640;2022-10-30T00:12:17;15.80;93.60
68691;DHT22;55675;49.588;8.640;2022-10-30T00:14:42;15.80;93.70
68691;DHT22;55675;49.588;8.640;2022-10-30T00:17:08;15.80;93.70
68691;DHT22;55675;49.588;8.640;2022-10-30T00:19:33;15.80;93.70
68691;DHT22;55675;49.588;8.640;2022-10-30T00:21:59;15.80;93.70
68691;DHT22;55675;49.588;8.640;2022-10-30T00:24:27;15.80;93.60
68691;DHT22;55675;49.588;8.640;2022-10-30T00:26:52;15.80;93.60
68691;DHT22;55675;49.588;8.640;2022-10-30T00:29:18;15.80;93.60
68691;DHT22;55675;49.588;8.640;2022-10-30T00:31:44;15.90;93.60
68691;DHT22;55675;49.588;8.640;2022-10-30T00:34:09;15.90;93.50
68691;DHT22;55675;49.588;8.640;2022-10-30T00:36:35;15.90;93.50
68691;DHT22;55675;49.588;8.640;2022-10-30T00:39:00;15.90;93.50
68691;DHT22;55675;49.588;8.640;2022-10-30T00:41:26;15.90;93.60
68691;DHT22;55675;49.588;8.640;2022-10-30T00:43:52;15.90;93.60
68691;DHT22;55675;49.588;8.640;2022-10-30T00:46:34;15.90;93.60
68691;DHT22;55675;49.588;8.640;2022-10-30T00:49:09;15.90;93.60
68691;DHT22;55675;49.588;8.640;2022-10-30T00:51:40;15.90;93.30
68691;DHT22;55675;49.588;8.640;2022-10-30T00:54:07;15.80;93.10
68691;DHT22;55675;49.588;8.640;2022-10-30T00:56:33;15.70;93.50
68691;DHT22;55675;49.588;8.640;2022-10-30T00:59:03;15.60;93.80
68691;DHT22;55675;49.588;8.640;2022-10-30T01:01:34;15.60;94.10
68691;DHT22;55675;49.588;8.640;2022-10-30T01:04:02;15.70;94.00
68691;DHT22;55675;49.588;8.640;2022-10-30T01:06:31;15.70;93.90
68691;DHT22;55675;49.588;8.640;2022-10-30T01:08:57;15.70;93.80
68691;DHT22;55675;49.588;8.640;2022-10-30T01:11:23;15.70;93.80
68691;DHT22;55675;49.588;8.640;2022-10-30T01:13:51;15.70;93.70
68691;DHT22;55675;49.588;8.640;2022-10-30T01:16:27;15.70;93.80
68691;DHT22;55675;49.588;8.640;2022-10-30T01:22:01;15.80;93.60
68691;DHT22;55675;49.588;8.640;2022-10-30T01:35:22;15.70;93.40
68691;DHT22;55675;49.588;8.640;2022-10-30T01:37:56;15.70;93.40
68691;DHT22;55675;49.588;8.640;2022-10-30T01:40:27;15.70;93.50
68691;DHT22;55675;49.588;8.640;2022-10-30T01:42:54;15.70;93.50
68691;DHT22;55675;49.588;8.640;2022-10-30T01:45:51;15.70;93.50
68691;DHT22;55675;49.588;8.640;2022-10-30T01:50:59;15.80;93.40
68691;DHT22;55675;49.588;8.640;2022-10-30T01:58:39;15.80;93.40
68691;DHT22;55675;49.588;8.640;2022-10-30T02:01:06;15.70;93.30
68691;DHT22;55675;49.588;8.640;2022-10-30T02:03:32;15.60;93.30
68691;DHT22;55675;49.588;8.640;2022-10-30T02:05:58;15.60;93.40
68691;DHT22;55675;49.588;8.640;2022-10-30T02:08:24;15.60;93.40
68691;DHT22;55675;49.588;8.640;2022-10-30T02:10:51;15.50;93.40
68691;DHT22;55675;49.588;8.640;2022-10-30T02:13:17;15.40;93.40
68691;DHT22;55675;49.588;8.640;2022-10-30T02:15:43;15.40;93.40
68691;DHT22;55675;49.588;8.640;2022-10-30T02:18:09;15.30;93.50
68691;DHT22;55675;49.588;8.640;2022-10-30T02:20:35;15.30;93.60
68691;DHT22;55675;49.588;8.640;2022-10-30T02:23:01;15.20;93.60
68691;DHT22;55675;49.588;8.640;2022-10-30T02:25:27;15.20;93.70
68691;DHT22;55675;49.588;8.640;2022-10-30T02:27:52;15.20;93.70
68691;DHT22;55675;49.588;8.640;2022-10-30T02:30:18;15.20;93.80
68691;DHT22;55675;49.588;8.640;2022-10-30T02:32:43;15.20;94.00
68691;DHT22;55675;49.588;8.640;2022-10-30T02:35:09;15.20;94.00
68691;DHT22;55675;49.588;8.640;2022-10-30T02:37:35;15.20;94.10
68691;DHT22;55675;49.588;8.640;2022-10-30T02:40:04;15.20;94.20
68691;DHT22;55675;49.588;8.640;2022-10-30T02:42:30;15.20;94.10
68691;DHT22;55675;49.588;8.640;2022-10-30T02:44:55;15.20;94.10
68691;DHT22;55675;49.588;8.640;2022-10-30T02:47:21;15.20;94.00
68691;DHT22;55675;49.588;8.640;2022-10-30T02:49:46;15.30;94.00
68691;DHT22;55675;49.588;8.640;2022-10-30T02:52:12;15.20;93.90
68691;DHT22;55675;49.588;8.640;2022-10-30T02:54:37;15.20;94.00
68691;DHT22;55675;49.588;8.640;2022-10-30T02:57:03;15.20;94.00
68691;DHT22;55675;49.588;8.640;2022-10-30T02:59:29;15.20;94.00
68691;DHT22;55675;49.588;8.640;2022-10-30T03:01:54;15.20;94.00
68691;DHT22;55675;49.588;8.640;2022-10-30T03:04:20;15.20;94.00
68691;DHT22;55675;49.588;8.640;2022-10-30T03:06:45;15.20;94.00
68691;DHT22;55675;49.588;8.640;2022-10-30T03:09:11;15.30;94.00
68691;DHT22;55675;49.588;8.640;2022-10-30T03:11:36;15.30;94.00
68691;DHT22;55675;49.588;8.640;2022-10-30T03:14:02;15.30;94.00
68691;DHT22;55675;49.588;8.640;2022-10-30T03:16:28;15.30;94.00
68691;DHT22;55675;49.588;8.640;2022-10-30T03:18:55;15.30;94.20
68691;DHT22;55675;49.588;8.640;2022-10-30T03:21:22;15.20;93.80
68691;DHT22;55675;49.588;8.640;2022-10-30T03:23:48;15.20;93.70
68691;DHT22;55675;49.588;8.640;2022-10-30T03:26:17;15.20;93.80
68691;DHT22;55675;49.588;8.640;2022-10-30T03:28:43;15.20;93.80
68691;DHT22;55675;49.588;8.640;2022-10-30T03:31:11;15.20;93.80
68691;DHT22;55675;49.588;8.640;2022-10-30T03:33:37;15.10;93.80
68691;DHT22;55675;49.588;8.640;2022-10-30T03:36:04;15.10;93.80
68691;DHT22;55675;49.588;8.640;2022-10-30T03:38:30;15.10;93.90
68691;DHT22;55675;49.588;8.640;2022-10-30T03:40:56;15.10;93.90
68691;DHT22;55675;49.588;8.640;2022-10-30T03:43:22;15.00;94.00
68691;DHT22;55675;49.588;8.640;2022-10-30T03:45:49;15.00;94.10
68691;DHT22;55675;49.588;8.640;2022-10-30T03:48:16;15.00;94.10
68691;DHT22;55675;49.588;8.640;2022-10-30T03:50:42;15.00;94.10
68691;DHT22;55675;49.588;8.640;2022-10-30T03:53:07;14.90;94.10
68691;DHT22;55675;49.588;8.640;2022-10-30T03:55:33;14.90;94.20
68691;DHT22;55675;49.588;8.640;2022-10-30T03:57:58;14.90;94.20
68691;DHT22;55675;49.588;8.640;2022-10-30T04:00:24;14.90;94.20
68691;DHT22;55675;49.588;8.640;2022-10-30T04:02:50;14.90;94.20
68691;DHT22;55675;49.588;8.640;2022-10-30T04:05:19;14.90;94.30
68691;DHT22;55675;49.588;8.640;2022-10-30T04:07:45;14.80;94.20
68691;DHT22;55675;49.588;8.640;2022-10-30T04:10:11;14.90;94.20
68691;DHT22;55675;49.588;8.640;2022-10-30T04:12:37;14.90;94.10
68691;DHT22;55675;49.588;8.640;2022-10-30T04:15:04;14.80;94.00
68691;DHT22;55675;49.588;8.640;2022-10-30T04:17:29;14.80;94.10
68691;DHT22;55675;49.588;8.640;2022-10-30T04:19:55;14.80;94.20
68691;DHT22;55675;49.588;8.640;2022-10-30T04:22:21;14.70;94.20
68691;DHT22;55675;49.588;8.640;2022-10-30T04:24:46;14.70;94.30
68691;DHT22;55675;49.588;8.640;2022-10-30T04:27:13;14.70;94.20
68691;DHT22;55675;49.588;8.640;2022-10-30T04:29:39;14.60;94.30
68691;DHT22;55675;49.588;8.640;2022-10-30T04:32:07;14.60;94.30
68691;DHT22;55675;49.588;8.640;2022-10-30T04:34:32;14.60;94.40
68691;DHT22;55675;49.588;8.640;2022-10-30T04:36:58;14.50;94.40
68691;DHT22;55675;49.588;8.640;2022-10-30T04:39:23;14.50;94.40
68691;DHT22;55675;49.588;8.640;2022-10-30T04:41:49;14.50;94.30
68691;DHT22;55675;49.588;8.640;2022-10-30T04:44:14;14.40;94.40
68691;DHT22;55675;49.588;8.640;2022-10-30T04:46:40;14.40;94.40
68691;DHT22;55675;49.588;8.640;2022-10-30T04:49:05;14.30;94.50
68691;DHT22;55675;49.588;8.640;2022-10-30T04:51:31;14.30;94.60
68691;DHT22;55675;49.588;8.640;2022-10-30T04:53:57;14.20;94.60
68691;DHT22;55675;49.588;8.640;2022-10-30T04:56:23;14.20;94.60
68691;DHT22;55675;49.588;8.640;2022-10-30T04:58:48;14.20;94.60
68691;DHT22;55675;49.588;8.640;2022-10-30T05:01:14;14.10;94.60
68691;DHT22;55675;49.588;8.640;2022-10-30T05:03:40;14.10;94.60
68691;DHT22;55675;49.588;8.640;2022-10-30T05:06:12;14.00;94.60
68691;DHT22;55675;49.588;8.640;2022-10-30T05:08:38;14.00;94.70
68691;DHT22;55675;49.588;8.640;2022-10-30T05:11:04;14.00;94.70
68691;DHT22;55675;49.588;8.640;2022-10-30T05:13:30;13.90;94.70
68691;DHT22;55675;49.588;8.640;2022-10-30T05:15:55;13.90;94.80
68691;DHT22;55675;49.588;8.640;2022-10-30T05:18:21;13.80;95.00
68691;DHT22;55675;49.588;8.640;2022-10-30T05:20:46;13.80;95.00
68691;DHT22;55675;49.588;8.640;2022-10-30T05:23:12;13.80;95.00
68691;DHT22;55675;49.588;8.640;2022-10-30T05:25:38;13.80;95.10
68691;DHT22;55675;49.588;8.640;2022-10-30T05:28:05;13.80;95.10
68691;DHT22;55675;49.588;8.640;2022-10-30T05:30:32;13.70;95.20
68691;DHT22;55675;49.588;8.640;2022-10-30T05:32:59;13.80;95.20
68691;DHT22;55675;49.588;8.640;2022-10-30T05:35:26;13.70;95.20
68691;DHT22;55675;49.588;8.640;2022-10-30T05:37:51;13.70;95.20
68691;DHT22;55675;49.588;8.640;2022-10-30T05:40:17;13.70;95.20
68691;DHT22;55675;49.588;8.640;2022-10-30T05:42:46;13.70;95.20
68691;DHT22;55675;49.588;8.640;2022-10-30T05:45:12;13.60;95.30
68691;DHT22;55675;49.588;8.640;2022-10-30T05:47:38;13.60;95.40
68691;DHT22;55675;49.588;8.640;2022-10-30T05:50:04;13.60;95.40
68691;DHT22;55675;49.588;8.640;2022-10-30T05:52:30;13.50;95.40
68691;DHT22;55675;49.588;8.640;2022-10-30T05:54:55;13.50;95.50
68691;DHT22;55675;49.588;8.640;2022-10-30T05:57:21;13.40;95.40
68691;DHT22;55675;49.588;8.640;2022-10-30T05:59:46;13.30;95.30
68691;DHT22;55675;49.588;8.640;2022-10-30T06:02:12;13.30;95.20
68691;DHT22;55675;49.588;8.640;2022-10-30T06:04:38;13.20;95.30
68691;DHT22;55675;49.588;8.640;2022-10-30T06:07:03;13.20;95.30
68691;DHT22;55675;49.588;8.640;2022-10-30T06:09:29;13.30;95.50
68691;DHT22;55675;49.588;8.640;2022-10-30T06:11:54;13.20;95.50
68691;DHT22;55675;49.588;8.640;2022-10-30T06:14:20;13.10;95.50
68691;DHT22;55675;49.588;8.640;2022-10-30T06:16:46;13.10;95.50
68691;DHT22;55675;49.588;8.640;2022-10-30T06:19:12;13.10;95.50
68691;DHT22;55675;49.588;8.640;2022-10-30T06:21:37;13.10;95.50
68691;DHT22;55675;49.588;8.640;2022-10-30T06:24:03;13.10;95.50
68691;DHT22;55675;49.588;8.640;2022-10-30T06:26:29;13.10;95.60
68691;DHT22;55675;49.588;8.640;2022-10-30T06:28:54;13.10;95.50
68691;DHT22;55675;49.588;8.640;2022-10-30T06:31:20;13.10;95.50
68691;DHT22;55675;49.588;8.640;2022-10-30T06:33:45;13.10;95.60
68691;DHT22;55675;49.588;8.640;2022-10-30T06:36:11;13.10;95.50
68691;DHT22;55675;49.588;8.640;2022-10-30T06:38:36;13.10;95.60
68691;DHT22;55675;49.588;8.640;2022-10-30T06:41:02;13.20;95.70
68691;DHT22;55675;49.588;8.640;2022-10-30T06:43:27;13.20;95.70
68691;DHT22;55675;49.588;8.640;2022-10-30T06:45:53;13.20;95.70
68691;DHT22;55675;49.588;8.640;2022-10-30T06:48:19;13.20;95.80
68691;DHT22;55675;49.588;8.640;2022-10-30T06:50:44;13.30;95.80
68691;DHT22;55675;49.588;8.640;2022-10-30T06:53:10;13.30;95.80
68691;DHT22;55675;49.588;8.640;2022-10-30T06:55:35;13.30;95.80
68691;DHT22;55675;49.588;8.640;2022-10-30T06:58:01;13.40;95.90
68691;DHT22;55675;49.588;8.640;2022-10-30T07:00:26;13.50;95.90
68691;DHT22;55675;49.588;8.640;2022-10-30T07:02:58;13.50;95.90
68691;DHT22;55675;49.588;8.640;2022-10-30T07:05:24;13.60;95.90
68691;DHT22;55675;49.588;8.640;2022-10-30T07:07:50;13.70;95.90
68691;DHT22;55675;49.588;8.640;2022-10-30T07:10:15;13.70;95.90
68691;DHT22;55675;49.588;8.640;2022-10-30T07:12:41;13.80;95.80
68691;DHT22;55675;49.588;8.640;2022-10-30T07:15:07;13.90;95.70
68691;DHT22;55675;49.588;8.640;2022-10-30T07:17:32;14.00;95.80
68691;DHT22;55675;49.588;8.640;2022-10-30T07:19:58;14.00;95.80
68691;DHT22;55675;49.588;8.640;2022-10-30T07:22:23;14.10;95.80
68691;DHT22;55675;49.588;8.640;2022-10-30T07:24:49;14.20;95.70
68691;DHT22;55675;49.588;8.640;2022-10-30T07:27:14;14.40;95.60
68691;DHT22;55675;49.588;8.640;2022-10-30T07:29:40;14.50;95.40
68691;DHT22;55675;49.588;8.640;2022-10-30T07:32:05;14.60;95.30
68691;DHT22;55675;49.588;8.640;2022-10-30T07:34:31;14.70;95.10
68691;DHT22;55675;49.588;8.640;2022-10-30T07:36:57;14.70;95.00
68691;DHT22;55675;49.588;8.640;2022-10-30T07:39:22;14.80;95.00
68691;DHT22;55675;49.588;8.640;2022-10-30T07:41:48;14.90;94.80
68691;DHT22;55675;49.588;8.640;2022-10-30T07:44:14;14.90;94.70
68691;DHT22;55675;49.588;8.640;2022-10-30T07:46:40;14.90;94.60
68691;DHT22;55675;49.588;8.640;2022-10-30T07:49:05;15.00;94.50
68691;DHT22;55675;49.588;8.640;2022-10-30T07:51:31;15.00;94.40
68691;DHT22;55675;49.588;8.640;2022-10-30T07:53:56;15.10;94.50
68691;DHT22;55675;49.588;8.640;2022-10-30T07:56:22;15.10;94.40
68691;DHT22;55675;49.588;8.640;2022-10-30T07:58:47;15.20;94.50
68691;DHT22;55675;49.588;8.640;2022-10-30T08:01:13;15.30;94.50
68691;DHT22;55675;49.588;8.640;2022-10-30T08:03:38;15.30;94.40
68691;DHT22;55675;49.588;8.640;2022-10-30T08:06:04;15.40;94.50
68691;DHT22;55675;49.588;8.640;2022-10-30T08:08:30;15.40;94.40
68691;DHT22;55675;49.588;8.640;2022-10-30T08:10:56;15.50;94.40
68691;DHT22;55675;49.588;8.640;2022-10-30T08:13:22;15.50;94.50
68691;DHT22;55675;49.588;8.640;2022-10-30T08:15:47;15.60;94.50
68691;DHT22;55675;49.588;8.640;2022-10-30T08:18:14;15.60;94.50
68691;DHT22;55675;49.588;8.640;2022-10-30T08:20:39;15.70;94.50
68691;DHT22;55675;49.588;8.640;2022-10-30T08:23:05;15.70;94.40
68691;DHT22;55675;49.588;8.640;2022-10-30T08:25:30;15.80;94.40
68691;DHT22;55675;49.588;8.640;2022-10-30T08:28:04;15.80;94.30
68691;DHT22;55675;49.588;8.640;2022-10-30T08:30:33;15.90;94.30
68691;DHT22;55675;49.588;8.640;2022-10-30T08:33:03;15.90;94.40
68691;DHT22;55675;49.588;8.640;2022-10-30T08:35:29;15.90;94.40
68691;DHT22;55675;49.588;8.640;2022-10-30T08:37:55;16.00;94.60
68691;DHT22;55675;49.588;8.640;2022-10-30T08:40:22;16.10;94.60
68691;DHT22;55675;49.588;8.640;2022-10-30T08:42:55;16.20;94.60
68691;DHT22;55675;49.588;8.640;2022-10-30T08:45:23;16.30;94.60
68691;DHT22;55675;49.588;8.640;2022-10-30T08:47:56;16.40;94.50
68691;DHT22;55675;49.588;8.640;2022-10-30T08:50:21;16.50;94.30
68691;DHT22;55675;49.588;8.640;2022-10-30T08:52:47;16.60;94.10
68691;DHT22;55675;49.588;8.640;2022-10-30T08:55:12;16.70;94.00
68691;DHT22;55675;49.588;8.640;2022-10-30T08:57:38;16.80;93.80
68691;DHT22;55675;49.588;8.640;2022-10-30T09:00:05;16.90;93.70
68691;DHT22;55675;49.588;8.640;2022-10-30T09:02:32;17.00;93.60
68691;DHT22;55675;49.588;8.640;2022-10-30T09:04:58;17.00;93.60
68691;DHT22;55675;49.588;8.640;2022-10-30T09:07:23;17.20;93.40
68691;DHT22;55675;49.588;8.640;2022-10-30T09:09:49;17.30;93.30
68691;DHT22;55675;49.588;8.640;2022-10-30T09:12:14;17.50;93.10
68691;DHT22;55675;49.588;8.640;2022-10-30T09:14:42;17.60;92.80
68691;DHT22;55675;49.588;8.640;2022-10-30T09:17:07;17.70;92.60
68691;DHT22;55675;49.588;8.640;2022-10-30T09:19:33;17.80;92.70
68691;DHT22;55675;49.588;8.640;2022-10-30T09:21:58;17.90;92.20
68691;DHT22;55675;49.588;8.640;2022-10-30T09:24:24;18.00;91.50
68691;DHT22;55675;49.588;8.640;2022-10-30T09:26:50;18.20;91.40
68691;DHT22;55675;49.588;8.640;2022-10-30T09:29:15;18.30;90.90
68691;DHT22;55675;49.588;8.640;2022-10-30T09:31:41;18.40;90.90
68691;DHT22;55675;49.588;8.640;2022-10-30T09:34:06;18.60;91.40
68691;DHT22;55675;49.588;8.640;2022-10-30T09:36:32;18.70;91.30
68691;DHT22;55675;49.588;8.640;2022-10-30T09:38:58;18.70;91.30
68691;DHT22;55675;49.588;8.640;2022-10-30T09:52:50;19.20;90.30
68691;DHT22;55675;49.588;8.640;2022-10-30T09:58:01;19.50;90.40
68691;DHT22;55675;49.588;8.640;2022-10-30T10:00:36;19.50;90.60
68691;DHT22;55675;49.588;8.640;2022-10-30T10:05:49;19.80;90.30
68691;DHT22;55675;49.588;8.640;2022-10-30T10:08:35;19.90;89.30
68691;DHT22;55675;49.588;8.640;2022-10-30T10:11:09;20.10;88.40
68691;DHT22;55675;49.588;8.640;2022-10-30T10:13:53;20.10;86.50
68691;DHT22;55675;49.588;8.640;2022-10-30T10:16:26;20.20;86.80
68691;DHT22;55675;49.588;8.640;2022-10-30T10:21:38;20.40;87.20
68691;DHT22;55675;49.588;8.640;2022-10-30T10:24:21;20.50;87.20
68691;DHT22;55675;49.588;8.640;2022-10-30T10:29:50;20.70;87.00
68691;DHT22;55675;49.588;8.640;2022-10-30T10:40:52;21.20;84.00
68691;DHT22;55675;49.588;8.640;2022-10-30T10:43:43;21.30;83.70
68691;DHT22;55675;49.588;8.640;2022-10-30T10:51:39;21.50;81.50
68691;DHT22;55675;49.588;8.640;2022-10-30T10:54:22;21.60;81.80
68691;DHT22;55675;49.588;8.640;2022-10-30T10:56:50;21.70;81.10
68691;DHT22;55675;49.588;8.640;2022-10-30T10:59:20;21.80;81.20
68691;DHT22;55675;49.588;8.640;2022-10-30T11:04:45;22.00;81.60
68691;DHT22;55675;49.588;8.640;2022-10-30T11:07:28;22.10;81.20
68691;DHT22;55675;49.588;8.640;2022-10-30T11:09:55;22.30;80.30
68691;DHT22;55675;49.588;8.640;2022-10-30T11:12:29;22.30;77.30
68691;DHT22;55675;49.588;8.640;2022-10-30T11:15:04;22.40;75.60
68691;DHT22;55675;49.588;8.640;2022-10-30T11:20:40;22.60;73.00
68691;DHT22;55675;49.588;8.640;2022-10-30T11:23:29;22.70;70.60
68691;DHT22;55675;49.588;8.640;2022-10-30T11:25:55;22.80;70.50
68691;DHT22;55675;49.588;8.640;2022-10-30T11:28:50;23.00;69.40
68691;DHT22;55675;49.588;8.640;2022-10-30T11:31:24;23.20;68.50
68691;DHT22;55675;49.588;8.640;2022-10-30T11:33:52;23.30;68.20
68691;DHT22;55675;49.588;8.640;2022-10-30T11:36:22;23.50;66.80
68691;DHT22;55675;49.588;8.640;2022-10-30T11:38:49;23.60;65.70
68691;DHT22;55675;49.588;8.640;2022-10-30T11:41:15;23.70;66.00
68691;DHT22;55675;49.588;8.640;2022-10-30T11:43:42;23.90;65.70
68691;DHT22;55675;49.588;8.640;2022-10-30T11:46:11;24.10;63.40
68691;DHT22;55675;49.588;8.640;2022-10-30T11:48:43;24.20;62.90
68691;DHT22;55675;49.588;8.640;2022-10-30T11:51:10;24.30;62.60
68691;DHT22;55675;49.588;8.640;2022-10-30T11:53:41;24.40;61.70
68691;DHT22;55675;49.588;8.640;2022-10-30T11:58:46;24.70;60.80
68691;DHT22;55675;49.588;8.640;2022-10-30T12:03:42;24.90;59.90
68691;DHT22;55675;49.588;8.640;2022-10-30T12:11:32;25.10;58.60
68691;DHT22;55675;49.588;8.640;2022-10-30T12:13:59;25.10;58.10
68691;DHT22;55675;49.588;8.640;2022-10-30T12:16:25;25.10;57.60
68691;DHT22;55675;49.588;8.640;2022-10-30T12:19:03;25.20;59.00
68691;DHT22;55675;49.588;8.640;2022-10-30T12:21:35;25.30;57.70
68691;DHT22;55675;49.588;8.640;2022-10-30T12:24:03;25.50;57.40
68691;DHT22;55675;49.588;8.640;2022-10-30T12:26:32;25.50;56.60
68691;DHT22;55675;49.588;8.640;2022-10-30T12:29:01;25.60;55.20
68691;DHT22;55675;49.588;8.640;2022-10-30T12:31:34;25.70;53.70
68691;DHT22;55675;49.588;8.640;2022-10-30T12:34:04;25.70;53.30
68691;DHT22;55675;49.588;8.640;2022-10-30T12:36:44;25.70;52.60
68691;DHT22;55675;49.588;8.640;2022-10-30T12:39:12;25.70;51.60
68691;DHT22;55675;49.588;8.640;2022-10-30T12:41:44;25.70;52.30
68691;DHT22;55675;49.588;8.640;2022-10-30T12:49:30;25.90;50.90
68691;DHT22;55675;49.588;8.640;2022-10-30T12:52:24;25.90;52.90
68691;DHT22;55675;49.588;8.640;2022-10-30T12:55:22;26.00;52.70
68691;DHT22;55675;49.588;8.640;2022-10-30T12:57:53;26.00;52.00
68691;DHT22;55675;49.588;8.640;2022-10-30T13:00:22;26.00;52.30
68691;DHT22;55675;49.588;8.640;2022-10-30T13:03:00;26.00;52.60
68691;DHT22;55675;49.588;8.640;2022-10-30T13:05:43;26.00;49.50
68691;DHT22;55675;49.588;8.640;2022-10-30T13:08:31;26.30;50.30
68691;DHT22;55675;49.588;8.640;2022-10-30T13:11:18;26.60;49.50
68691;DHT22;55675;49.588;8.640;2022-10-30T13:13:48;26.60;48.10
68691;DHT22;55675;49.588;8.640;2022-10-30T13:16:27;26.40;49.80
68691;DHT22;55675;49.588;8.640;2022-10-30T13:18:55;26.20;50.20
68691;DHT22;55675;49.588;8.640;2022-10-30T13:21:30;26.10;51.60
68691;DHT22;55675;49.588;8.640;2022-10-30T13:24:02;26.00;51.70
68691;DHT22;55675;49.588;8.640;2022-10-30T13:26:38;26.00;52.60
68691;DHT22;55675;49.588;8.640;2022-10-30T13:29:44;26.00;52.80
68691;DHT22;55675;49.588;8.640;2022-10-30T13:32:28;26.00;53.00
68691;DHT22;55675;49.588;8.640;2022-10-30T13:38:12;26.00;52.70
68691;DHT22;55675;49.588;8.640;2022-10-30T13:40:45;26.00;53.20
68691;DHT22;55675;49.588;8.640;2022-10-30T13:43:22;26.00;53.50
68691;DHT22;55675;49.588;8.640;2022-10-30T13:51:43;26.00;53.50
68691;DHT22;55675;49.588;8.640;2022-10-30T13:54:17;26.00;53.60
68691;DHT22;55675;49.588;8.640;2022-10-30T13:56:46;26.00;53.60
68691;DHT22;55675;49.588;8.640;2022-10-30T13:59:35;26.00;53.70
68691;DHT22;55675;49.588;8.640;2022-10-30T14:02:17;26.00;53.60
68691;DHT22;55675;49.588;8.640;2022-10-30T14:04:57;26.00;53.20
68691;DHT22;55675;49.588;8.640;2022-10-30T14:07:33;26.00;53.50
68691;DHT22;55675;49.588;8.640;2022-10-30T14:10:06;26.00;53.80
68691;DHT22;55675;49.588;8.640;2022-10-30T14:15:33;25.90;53.60
68691;DHT22;55675;49.588;8.640;2022-10-30T14:20:49;25.70;53.20
68691;DHT22;55675;49.588;8.640;2022-10-30T14:28:26;25.70;54.30
68691;DHT22;55675;49.588;8.640;2022-10-30T14:31:18;25.70;55.30
68691;DHT22;55675;49.588;8.640;2022-10-30T14:33:49;25.60;56.60
68691;DHT22;55675;49.588;8.640;2022-10-30T14:36:21;25.50;57.10
68691;DHT22;55675;49.588;8.640;2022-10-30T14:52:35;24.80;60.40
68691;DHT22;55675;49.588;8.640;2022-10-30T14:55:21;24.70;61.20
68691;DHT22;55675;49.588;8.640;2022-10-30T14:58:26;24.60;61.10
68691;DHT22;55675;49.588;8.640;2022-10-30T15:14:37;24.60;60.50
68691;DHT22;55675;49.588;8.640;2022-10-30T15:17:03;24.50;60.70
68691;DHT22;55675;49.588;8.640;2022-10-30T15:19:30;24.40;62.10
68691;DHT22;55675;49.588;8.640;2022-10-30T15:21:58;24.40;62.70
68691;DHT22;55675;49.588;8.640;2022-10-30T15:24:25;24.30;62.90
68691;DHT22;55675;49.588;8.640;2022-10-30T15:26:53;24.40;63.00
68691;DHT22;55675;49.588;8.640;2022-10-30T15:29:25;24.50;62.90
68691;DHT22;55675;49.588;8.640;2022-10-30T15:32:03;24.60;62.50
68691;DHT22;55675;49.588;8.640;2022-10-30T15:34:30;24.60;62.50
68691;DHT22;55675;49.588;8.640;2022-10-30T15:36:55;24.50;62.00
68691;DHT22;55675;49.588;8.640;2022-10-30T15:39:22;24.30;62.80
68691;DHT22;55675;49.588;8.640;2022-10-30T15:41:59;24.10;63.40
68691;DHT22;55675;49.588;8.640;2022-10-30T15:44:28;23.80;64.00
68691;DHT22;55675;49.588;8.640;2022-10-30T15:46:56;23.60;64.60
68691;DHT22;55675;49.588;8.640;2022-10-30T15:49:29;23.40;65.60
68691;DHT22;55675;49.588;8.640;2022-10-30T15:51:57;23.20;66.40
68691;DHT22;55675;49.588;8.640;2022-10-30T15:54:24;22.90;66.90
68691;DHT22;55675;49.588;8.640;2022-10-30T15:56:54;22.70;67.10
68691;DHT22;55675;49.588;8.640;2022-10-30T15:59:30;22.50;67.50
68691;DHT22;55675;49.588;8.640;2022-10-30T16:02:00;22.40;67.40
68691;DHT22;55675;49.588;8.640;2022-10-30T16:04:30;22.20;67.70
68691;DHT22;55675;49.588;8.640;2022-10-30T16:07:00;22.00;68.20
68691;DHT22;55675;49.588;8.640;2022-10-30T16:09:28;21.80;69.60
68691;DHT22;55675;49.588;8.640;2022-10-30T16:11:56;21.60;70.00
68691;DHT22;55675;49.588;8.640;2022-10-30T16:14:27;21.40;70.60
68691;DHT22;55675;49.588;8.640;2022-10-30T16:16:58;21.20;71.70
68691;DHT22;55675;49.588;8.640;2022-10-30T16:19:30;21.00;72.10
68691;DHT22;55675;49.588;8.640;2022-10-30T16:21:58;20.90;73.70
68691;DHT22;55675;49.588;8.640;2022-10-30T16:24:34;20.70;73.30
68691;DHT22;55675;49.588;8.640;2022-10-30T16:27:03;20.60;74.50
68691;DHT22;55675;49.588;8.640;2022-10-30T16:29:30;20.40;75.00
68691;DHT22;55675;49.588;8.640;2022-10-30T16:31:56;20.30;76.00
68691;DHT22;55675;49.588;8.640;2022-10-30T16:34:24;20.10;77.50
68691;DHT22;55675;49.588;8.640;2022-10-30T16:36:51;20.00;78.50
68691;DHT22;55675;49.588;8.640;2022-10-30T16:39:18;19.90;79.00
68691;DHT22;55675;49.588;8.640;2022-10-30T16:41:44;19.70;79.20
68691;DHT22;55675;49.588;8.640;2022-10-30T16:44:19;19.60;79.90
68691;DHT22;55675;49.588;8.640;2022-10-30T16:49:23;19.30;81.20
68691;DHT22;55675;49.588;8.640;2022-10-30T16:52:12;19.30;81.50
68691;DHT22;55675;49.588;8.640;2022-10-30T16:54:40;19.20;82.30
68691;DHT22;55675;49.588;8.640;2022-10-30T16:57:15;19.10;82.40
68691;DHT22;55675;49.588;8.640;2022-10-30T16:59:47;18.90;82.10
68691;DHT22;55675;49.588;8.640;2022-10-30T17:02:25;18.90;82.10
68691;DHT22;55675;49.588;8.640;2022-10-30T17:04:55;18.80;82.40
68691;DHT22;55675;49.588;8.640;2022-10-30T17:07:24;18.70;82.30
68691;DHT22;55675;49.588;8.640;2022-10-30T17:09:54;18.70;82.80
68691;DHT22;55675;49.588;8.640;2022-10-30T17:12:22;18.60;83.20
68691;DHT22;55675;49.588;8.640;2022-10-30T17:17:35;18.50;83.80
68691;DHT22;55675;49.588;8.640;2022-10-30T17:20:25;18.40;84.40
68691;DHT22;55675;49.588;8.640;2022-10-30T17:23:10;18.30;85.10
68691;DHT22;55675;49.588;8.640;2022-10-30T17:25:38;18.20;86.00
68691;DHT22;55675;49.588;8.640;2022-10-30T17:28:05;18.10;85.50
68691;DHT22;55675;49.588;8.640;2022-10-30T17:33:02;18.00;85.90
68691;DHT22;55675;49.588;8.640;2022-10-30T17:35:28;18.00;86.20
68691;DHT22;55675;49.588;8.640;2022-10-30T17:37:53;17.90;86.80
68691;DHT22;55675;49.588;8.640;2022-10-30T17:40:19;17.80;87.00
68691;DHT22;55675;49.588;8.640;2022-10-30T17:42:45;17.80;86.70
68691;DHT22;55675;49.588;8.640;2022-10-30T17:45:14;17.70;86.60
68691;DHT22;55675;49.588;8.640;2022-10-30T17:47:40;17.70;86.00
68691;DHT22;55675;49.588;8.640;2022-10-30T17:50:06;17.70;86.00
68691;DHT22;55675;49.588;8.640;2022-10-30T17:52:32;17.60;85.70
68691;DHT22;55675;49.588;8.640;2022-10-30T17:55:00;17.60;84.60